sensor_id;sensor_type;location;lat;lon;timestamp;temperature;humidity
490;DHT22;231;48.120;11.576;2024-01-15T02:24:59;-1.90;99.90
490;DHT22;231;48.120;11.576;2024-01-15T02:27:26;-1.80;99.90
490;DHT22;231;48.120;11.576;2024-01-15T02:29:53;-1.80;99.90
490;DHT22;231;48.120;11.576;2024-01-15T02:32:20;-1.80;99.90
490;DHT22;231;48.120;11.576;2024-01-15T02:34:47;-1.70;99.90
490;DHT22;231;48.120;11.576;2024-01-15T02:37:13;-1.60;99.90
490;DHT22;231;48.120;11.576;2024-01-15T02:39:40;-1.60;99.90
490;DHT22;231;48.120;11.576;2024-01-15T02:42:08;-1.50;99.90
490;DHT22;231;48.120;11.576;2024-01-15T02:44:35;-1.40;99.90
490;DHT22;231;48.120;11.576;2024-01-15T02:47:02;-1.40;99.90
490;DHT22;231;48.120;11.576;2024-01-15T02:49:29;-1.30;99.90
490;DHT22;231;48.120;11.576;2024-01-15T02:51:58;-1.30;99.90
490;DHT22;231;48.120;11.576;2024-01-15T02:54:24;-1.30;99.90
490;DHT22;231;48.120;11.576;2024-01-15T02:56:51;-1.20;99.90
490;DHT22;231;48.120;11.576;2024-01-15T02:59:19;-1.20;99.90
490;DHT22;231;48.120;11.576;2024-01-15T03:01:46;-1.20;99.90
490;DHT22;231;48.120;11.576;2024-01-15T03:04:13;-1.10;99.90
490;DHT22;231;48.120;11.576;2024-01-15T03:06:41;-1.10;99.90
490;DHT22;231;48.120;11.576;2024-01-15T03:09:08;-1.00;99.90
490;DHT22;231;48.120;11.576;2024-01-15T03:11:37;-1.00;99.90
490;DHT22;231;48.120;11.576;2024-01-15T03:14:04;-1.00;99.90
490;DHT22;231;48.120;11.576;2024-01-15T03:16:33;-1.00;99.90
490;DHT22;231;48.120;11.576;2024-01-15T03:19:00;-1.00;99.90
490;DHT22;231;48.120;11.576;2024-01-15T03:21:26;-1.00;99.90
490;DHT22;231;48.120;11.576;2024-01-15T03:23:53;-1.00;99.90
490;DHT22;231;48.120;11.576;2024-01-15T03:26:20;-0.90;99.90
490;DHT22;231;48.120;11.576;2024-01-15T03:28:47;-0.90;99.90
490;DHT22;231;48.120;11.576;2024-01-15T03:31:14;-0.90;99.90
490;DHT22;231;48.120;11.576;2024-01-15T03:33:43;-0.90;99.90
490;DHT22;231;48.120;11.576;2024-01-15T03:36:10;-0.90;99.90
490;DHT22;231;48.120;11.576;2024-01-15T03:38:40;-0.90;99.90
490;DHT22;231;48.120;11.576;2024-01-15T10:23:36;1.20;99.90
490;DHT22;231;48.120;11.576;2024-01-15T10:29:26;1.20;99.90
490;DHT22;231;48.120;11.576;2024-01-15T10:32:03;1.30;99.90
490;DHT22;231;48.120;11.576;2024-01-15T11:00:29;1.50;99.90
490;DHT22;231;48.120;11.576;2024-01-15T11:06:41;1.70;99.90
490;DHT22;231;48.120;11.576;2024-01-15T11:09:11;1.80;99.90
490;DHT22;231;48.120;11.576;2024-01-15T11:11:45;1.90;99.90
490;DHT22;231;48.120;11.576;2024-01-15T11:14:45;2.10;99.90
490;DHT22;231;48.120;11.576;2024-01-15T11:17:59;2.20;99.90
490;DHT22;231;48.120;11.576;2024-01-15T11:20:32;2.20;99.90
490;DHT22;231;48.120;11.576;2024-01-15T11:23:00;2.20;99.90
490;DHT22;231;48.120;11.576;2024-01-15T11:25:35;2.20;99.90
490;DHT22;231;48.120;11.576;2024-01-15T11:28:04;2.20;99.90
490;DHT22;231;48.120;11.576;2024-01-15T11:30:37;2.30;99.90
490;DHT22;231;48.120;11.576;2024-01-15T11:33:32;2.40;99.90
490;DHT22;231;48.120;11.576;2024-01-15T11:35:59;2.50;99.90
490;DHT22;231;48.120;11.576;2024-01-15T11:38:29;2.50;99.90
490;DHT22;231;48.120;11.576;2024-01-15T11:40:56;2.60;99.90
490;DHT22;231;48.120;11.576;2024-01-15T11:43:25;2.60;99.90
490;DHT22;231;48.120;11.576;2024-01-15T11:45:52;3.00;99.90
490;DHT22;231;48.120;11.576;2024-01-15T11:48:21;2.30;99.90
490;DHT22;231;48.120;11.576;2024-01-15T11:50:50;2.20;99.90
490;DHT22;231;48.120;11.576;2024-01-15T11:53:26;2.00;99.90
490;DHT22;231;48.120;11.576;2024-01-15T11:55:58;2.20;99.90
490;DHT22;231;48.120;11.576;2024-01-15T11:58:25;1.70;99.90
490;DHT22;231;48.120;11.576;2024-01-15T12:00:53;1.70;99.90
490;DHT22;231;48.120;11.576;2024-01-15T12:03:22;1.80;99.90
490;DHT22;231;48.120;11.576;2024-01-15T12:05:49;1.40;99.90
490;DHT22;231;48.120;11.576;2024-01-15T12:08:15;1.60;99.90
490;DHT22;231;48.120;11.576;2024-01-15T12:10:49;1.40;99.90
490;DHT22;231;48.120;11.576;2024-01-15T12:13:17;1.20;99.90
490;DHT22;231;48.120;11.576;2024-01-15T12:15:45;1.30;99.90
490;DHT22;231;48.120;11.576;2024-01-15T12:18:13;1.30;99.90
490;DHT22;231;48.120;11.576;2024-01-15T12:20:43;1.30;99.90
490;DHT22;231;48.120;11.576;2024-01-15T12:23:12;1.20;99.90
490;DHT22;231;48.120;11.576;2024-01-15T12:25:40;1.30;99.90
490;DHT22;231;48.120;11.576;2024-01-15T12:28:07;1.30;99.90
490;DHT22;231;48.120;11.576;2024-01-15T12:30:35;1.20;99.90
490;DHT22;231;48.120;11.576;2024-01-15T12:33:07;1.20;99.90
490;DHT22;231;48.120;11.576;2024-01-15T12:35:34;1.20;99.90
490;DHT22;231;48.120;11.576;2024-01-15T12:38:03;1.20;99.90
490;DHT22;231;48.120;11.576;2024-01-15T12:40:32;1.20;99.90
490;DHT22;231;48.120;11.576;2024-01-15T12:42:59;1.30;99.90
490;DHT22;231;48.120;11.576;2024-01-15T12:45:30;1.30;99.90
490;DHT22;231;48.120;11.576;2024-01-15T12:47:57;1.30;99.90
490;DHT22;231;48.120;11.576;2024-01-15T12:50:25;1.30;99.90
490;DHT22;231;48.120;11.576;2024-01-15T12:52:53;1.80;99.90
490;DHT22;231;48.120;11.576;2024-01-15T12:55:21;1.30;99.90
490;DHT22;231;48.120;11.576;2024-01-15T12:57:49;1.60;99.90
490;DHT22;231;48.120;11.576;2024-01-15T13:00:19;1.30;99.90
490;DHT22;231;48.120;11.576;2024-01-15T13:02:49;1.50;99.90
490;DHT22;231;48.120;11.576;2024-01-15T13:05:17;1.80;99.90
490;DHT22;231;48.120;11.576;2024-01-15T13:07:44;2.00;99.90
490;DHT22;231;48.120;11.576;2024-01-15T13:10:12;2.30;99.90
490;DHT22;231;48.120;11.576;2024-01-15T13:23:01;3.00;99.90
490;DHT22;231;48.120;11.576;2024-01-15T13:25:47;3.00;99.90
490;DHT22;231;48.120;11.576;2024-01-15T13:28:28;3.00;99.90
490;DHT22;231;48.120;11.576;2024-01-15T13:31:24;3.00;99.90
490;DHT22;231;48.120;11.576;2024-01-15T13:38:32;2.80;99.90
490;DHT22;231;48.120;11.576;2024-01-15T14:12:10;2.20;99.90
490;DHT22;231;48.120;11.576;2024-01-15T14:15:12;2.10;99.90
490;DHT22;231;48.120;11.576;2024-01-15T14:18:00;2.00;99.90
490;DHT22;231;48.120;11.576;2024-01-15T14:48:14;1.40;99.90
490;DHT22;231;48.120;11.576;2024-01-15T14:51:09;1.30;99.90
490;DHT22;231;48.120;11.576;2024-01-15T14:54:13;1.20;99.90
490;DHT22;231;48.120;11.576;2024-01-15T14:57:05;1.20;99.90
490;DHT22;231;48.120;11.576;2024-01-15T15:02:35;1.10;99.90
490;DHT22;231;48.120;11.576;2024-01-15T15:08:23;1.10;99.90
490;DHT22;231;48.120;11.576;2024-01-15T15:11:31;1.00;99.90
490;DHT22;231;48.120;11.576;2024-01-15T15:14:13;1.00;99.90
490;DHT22;231;48.120;11.576;2024-01-15T15:17:11;1.00;99.90
490;DHT22;231;48.120;11.576;2024-01-15T15:19:41;1.00;99.90
490;DHT22;231;48.120;11.576;2024-01-15T15:22:30;1.00;99.90
490;DHT22;231;48.120;11.576;2024-01-15T15:25:09;1.00;99.90
490;DHT22;231;48.120;11.576;2024-01-15T15:27:39;1.00;99.90
490;DHT22;231;48.120;11.576;2024-01-15T15:30:07;1.60;99.90
490;DHT22;231;48.120;11.576;2024-01-15T15:32:35;0.90;99.90
490;DHT22;231;48.120;11.576;2024-01-15T15:35:03;1.00;99.90
490;DHT22;231;48.120;11.576;2024-01-15T15:37:33;0.90;99.90
490;DHT22;231;48.120;11.576;2024-01-15T15:40:04;1.00;99.90
490;DHT22;231;48.120;11.576;2024-01-15T15:42:34;1.00;99.90
490;DHT22;231;48.120;11.576;2024-01-15T15:45:01;1.00;99.90
490;DHT22;231;48.120;11.576;2024-01-15T15:47:29;1.00;99.90
490;DHT22;231;48.120;11.576;2024-01-15T15:49:56;1.00;99.90
490;DHT22;231;48.120;11.576;2024-01-15T15:52:23;0.90;99.90
490;DHT22;231;48.120;11.576;2024-01-15T15:54:51;1.00;99.90
490;DHT22;231;48.120;11.576;2024-01-15T15:57:20;0.90;99.90
490;DHT22;231;48.120;11.576;2024-01-15T15:59:48;0.90;99.90
490;DHT22;231;48.120;11.576;2024-01-15T16:02:15;0.90;99.90
490;DHT22;231;48.120;11.576;2024-01-15T16:04:42;1.00;99.90
490;DHT22;231;48.120;11.576;2024-01-15T16:07:09;0.90;99.90
490;DHT22;231;48.120;11.576;2024-01-15T16:09:37;0.90;99.90
490;DHT22;231;48.120;11.576;2024-01-15T16:12:07;1.20;99.90
490;DHT22;231;48.120;11.576;2024-01-15T16:14:34;0.90;99.90
490;DHT22;231;48.120;11.576;2024-01-15T16:17:02;0.90;99.90
490;DHT22;231;48.120;11.576;2024-01-15T16:19:29;0.90;99.90
490;DHT22;231;48.120;11.576;2024-01-15T16:21:55;0.90;99.90
490;DHT22;231;48.120;11.576;2024-01-15T16:24:22;0.90;99.90
490;DHT22;231;48.120;11.576;2024-01-15T16:26:50;0.90;99.90
490;DHT22;231;48.120;11.576;2024-01-15T16:29:21;0.90;99.90
490;DHT22;231;48.120;11.576;2024-01-15T16:31:48;0.90;99.90
490;DHT22;231;48.120;11.576;2024-01-15T16:34:15;0.90;99.90
490;DHT22;231;48.120;11.576;2024-01-15T16:36:42;0.90;99.90
490;DHT22;231;48.120;11.576;2024-01-15T16:39:09;0.80;99.90
490;DHT22;231;48.120;11.576;2024-01-15T16:41:36;0.80;99.90
490;DHT22;231;48.120;11.576;2024-01-15T16:44:03;0.80;99.90
490;DHT22;231;48.120;11.576;2024-01-15T16:46:31;0.80;99.90
490;DHT22;231;48.120;11.576;2024-01-15T16:48:58;0.80;99.90
490;DHT22;231;48.120;11.576;2024-01-15T16:51:27;0.80;99.90
490;DHT22;231;48.120;11.576;2024-01-15T16:53:54;0.80;99.90
490;DHT22;231;48.120;11.576;2024-01-15T16:56:21;0.70;99.90
490;DHT22;231;48.120;11.576;2024-01-15T16:58:48;0.80;99.90
490;DHT22;231;48.120;11.576;2024-01-15T17:01:15;0.80;99.90
490;DHT22;231;48.120;11.576;2024-01-15T17:03:43;0.80;99.90
490;DHT22;231;48.120;11.576;2024-01-15T17:06:11;0.80;99.90
490;DHT22;231;48.120;11.576;2024-01-15T17:08:39;0.80;99.90
490;DHT22;231;48.120;11.576;2024-01-15T17:11:05;0.80;99.90
490;DHT22;231;48.120;11.576;2024-01-15T17:13:33;0.80;99.90
490;DHT22;231;48.120;11.576;2024-01-15T17:16:00;0.80;99.90
490;DHT22;231;48.120;11.576;2024-01-15T17:18:27;0.80;99.90
490;DHT22;231;48.120;11.576;2024-01-15T17:20:55;0.80;99.90
490;DHT22;231;48.120;11.576;2024-01-15T17:23:23;0.80;99.90
490;DHT22;231;48.120;11.576;2024-01-15T17:25:51;0.80;99.90
490;DHT22;231;48.120;11.576;2024-01-15T17:28:18;0.80;99.90
490;DHT22;231;48.120;11.576;2024-01-15T17:30:46;0.90;99.90
490;DHT22;231;48.120;11.576;2024-01-15T17:33:15;0.90;99.90
490;DHT22;231;48.120;11.576;2024-01-15T17:35:50;0.80;99.90
490;DHT22;231;48.120;11.576;2024-01-15T17:38:18;0.90;99.90
490;DHT22;231;48.120;11.576;2024-01-15T17:40:46;0.90;99.90
490;DHT22;231;48.120;11.576;2024-01-15T17:43:14;0.90;99.90
490;DHT22;231;48.120;11.576;2024-01-15T17:45:41;0.90;99.90
490;DHT22;231;48.120;11.576;2024-01-15T17:48:08;0.80;99.90
490;DHT22;231;48.120;11.576;2024-01-15T17:50:36;0.70;99.90
490;DHT22;231;48.120;11.576;2024-01-15T17:53:04;0.60;99.90
490;DHT22;231;48.120;11.576;2024-01-15T17:55:32;0.50;99.90
490;DHT22;231;48.120;11.576;2024-01-15T17:57:59;0.50;99.90
490;DHT22;231;48.120;11.576;2024-01-15T18:00:28;0.40;99.90
490;DHT22;231;48.120;11.576;2024-01-15T18:02:55;0.40;99.90
490;DHT22;231;48.120;11.576;2024-01-15T18:05:22;0.40;99.90
490;DHT22;231;48.120;11.576;2024-01-15T18:07:49;0.40;99.90
490;DHT22;231;48.120;11.576;2024-01-15T18:10:16;0.40;99.90
490;DHT22;231;48.120;11.576;2024-01-15T18:12:48;0.40;99.90
490;DHT22;231;48.120;11.576;2024-01-15T18:15:15;0.40;99.90
490;DHT22;231;48.120;11.576;2024-01-15T18:17:42;0.40;99.90
490;DHT22;231;48.120;11.576;2024-01-15T18:20:10;0.40;99.90
490;DHT22;231;48.120;11.576;2024-01-15T18:22:38;0.40;99.90
490;DHT22;231;48.120;11.576;2024-01-15T18:25:05;0.40;99.90
490;DHT22;231;48.120;11.576;2024-01-15T18:27:33;0.50;99.90
490;DHT22;231;48.120;11.576;2024-01-15T18:30:03;0.60;99.90
490;DHT22;231;48.120;11.576;2024-01-15T18:32:31;0.50;99.90
490;DHT22;231;48.120;11.576;2024-01-15T18:34:58;0.50;99.90
490;DHT22;231;48.120;11.576;2024-01-15T18:37:25;0.80;99.90
490;DHT22;231;48.120;11.576;2024-01-15T18:39:53;0.50;99.90
490;DHT22;231;48.120;11.576;2024-01-15T18:42:20;0.60;99.90
490;DHT22;231;48.120;11.576;2024-01-15T18:44:47;0.50;99.90
490;DHT22;231;48.120;11.576;2024-01-15T18:47:16;0.50;99.90
490;DHT22;231;48.120;11.576;2024-01-15T18:49:45;0.50;99.90
490;DHT22;231;48.120;11.576;2024-01-15T18:52:12;0.50;99.90
490;DHT22;231;48.120;11.576;2024-01-15T18:54:40;0.40;99.90
490;DHT22;231;48.120;11.576;2024-01-15T18:57:08;0.40;99.90
490;DHT22;231;48.120;11.576;2024-01-15T18:59:34;0.40;99.90
490;DHT22;231;48.120;11.576;2024-01-15T19:02:02;0.40;99.90
490;DHT22;231;48.120;11.576;2024-01-15T19:04:31;0.30;99.90
490;DHT22;231;48.120;11.576;2024-01-15T19:06:59;0.30;99.90
490;DHT22;231;48.120;11.576;2024-01-15T19:09:26;0.30;99.90
490;DHT22;231;48.120;11.576;2024-01-15T19:11:54;0.20;99.90
490;DHT22;231;48.120;11.576;2024-01-15T19:14:42;0.10;99.90
490;DHT22;231;48.120;11.576;2024-01-15T19:17:09;0.10;99.90
490;DHT22;231;48.120;11.576;2024-01-15T22:26:37;-2.40;99.90
490;DHT22;231;48.120;11.576;2024-01-15T22:29:04;-2.40;99.90
490;DHT22;231;48.120;11.576;2024-01-15T22:31:31;-2.40;99.90
490;DHT22;231;48.120;11.576;2024-01-15T22:33:58;-2.40;99.90
490;DHT22;231;48.120;11.576;2024-01-15T22:36:25;-2.30;99.90
490;DHT22;231;48.120;11.576;2024-01-15T22:38:52;-2.30;99.90
490;DHT22;231;48.120;11.576;2024-01-15T22:41:19;-2.20;99.90
490;DHT22;231;48.120;11.576;2024-01-15T22:43:47;-2.20;99.90
490;DHT22;231;48.120;11.576;2024-01-15T22:46:14;-2.10;99.90
490;DHT22;231;48.120;11.576;2024-01-15T22:48:41;-2.00;99.90
490;DHT22;231;48.120;11.576;2024-01-15T22:51:07;-2.00;99.90
490;DHT22;231;48.120;11.576;2024-01-15T22:53:37;-2.00;99.90
490;DHT22;231;48.120;11.576;2024-01-15T22:56:11;-1.90;99.90
490;DHT22;231;48.120;11.576;2024-01-15T22:58:38;-1.90;99.90
490;DHT22;231;48.120;11.576;2024-01-15T23:01:06;-1.90;99.90
490;DHT22;231;48.120;11.576;2024-01-15T23:03:33;-1.80;99.90
490;DHT22;231;48.120;11.576;2024-01-15T23:05:59;-1.80;99.90
490;DHT22;231;48.120;11.576;2024-01-15T23:08:30;-1.80;99.90
490;DHT22;231;48.120;11.576;2024-01-15T23:10:56;-1.70;99.90
490;DHT22;231;48.120;11.576;2024-01-15T23:13:23;-1.70;99.90
490;DHT22;231;48.120;11.576;2024-01-15T23:16:05;-1.70;99.90
490;DHT22;231;48.120;11.576;2024-01-15T23:18:40;-1.70;99.90
490;DHT22;231;48.120;11.576;2024-01-15T23:21:07;-1.70;99.90
490;DHT22;231;48.120;11.576;2024-01-15T23:23:40;-1.70;99.90
490;DHT22;231;48.120;11.576;2024-01-15T23:26:07;-1.60;99.90
490;DHT22;231;48.120;11.576;2024-01-15T23:28:34;-1.60;99.90
490;DHT22;231;48.120;11.576;2024-01-15T23:31:01;-1.50;99.90
490;DHT22;231;48.120;11.576;2024-01-15T23:33:28;-1.60;99.90
490;DHT22;231;48.120;11.576;2024-01-15T23:35:56;-1.50;99.90
490;DHT22;231;48.120;11.576;2024-01-15T23:38:26;-1.50;99.90
490;DHT22;231;48.120;11.576;2024-01-15T23:40:53;-1.50;99.90
490;DHT22;231;48.120;11.576;2024-01-15T23:43:21;-1.50;99.90
490;DHT22;231;48.120;11.576;2024-01-15T23:45:48;-1.50;99.90
490;DHT22;231;48.120;11.576;2024-01-15T23:48:15;-1.50;99.90
490;DHT22;231;48.120;11.576;2024-01-15T23:50:42;-1.40;99.90
490;DHT22;231;48.120;11.576;2024-01-15T23:53:10;-1.40;99.90
490;DHT22;231;48.120;11.576;2024-01-15T23:55:37;-1.40;99.90
490;DHT22;231;48.120;11.576;2024-01-15T23:58:06;-1.40;99.90
